createdAt,value
2019-01-20T00:02:39.152Z,-3.10
2019-01-20T00:05:42.588Z,-3.10
2019-01-20T00:08:46.036Z,-3.20
2019-01-20T00:11:49.466Z,-3.10
2019-01-20T00:14:52.964Z,-3.20
2019-01-20T00:17:56.399Z,-3.20
2019-01-20T00:20:59.865Z,-3.30
2019-01-20T00:24:03.280Z,-3.40
2019-01-20T00:27:06.741Z,-3.40
2019-01-20T00:30:17.944Z,-3.40
2019-01-20T00:33:21.398Z,-3.40
2019-01-20T00:36:24.821Z,-3.50
2019-01-20T00:39:28.277Z,-3.50
2019-01-20T00:42:32.668Z,-3.40
2019-01-20T00:45:36.112Z,-3.40
2019-01-20T00:48:39.560Z,-3.40
2019-01-20T00:51:42.986Z,-3.40
2019-01-20T00:54:46.462Z,-3.40
2019-01-20T00:57:50.055Z,-3.40
2019-01-20T01:00:53.504Z,-3.50
2019-01-20T01:03:56.928Z,-3.50
2019-01-20T01:07:00.395Z,-3.50
2019-01-20T01:10:05.569Z,-3.50
2019-01-20T01:13:09.577Z,-3.50
2019-01-20T01:16:12.996Z,-3.40
2019-01-20T01:19:16.444Z,-3.40
2019-01-20T01:22:19.870Z,-3.50
2019-01-20T01:25:23.318Z,-3.50
2019-01-20T01:28:26.761Z,-3.50
2019-01-20T01:31:30.188Z,-3.50
2019-01-20T01:34:33.647Z,-3.50
2019-01-20T01:37:37.065Z,-3.50
2019-01-20T01:40:40.612Z,-3.60
2019-01-20T01:43:44.025Z,-3.50
2019-01-20T01:46:47.483Z,-3.60
2019-01-20T01:49:50.901Z,-3.70
2019-01-20T01:52:54.440Z,-3.70
2019-01-20T01:55:57.864Z,-3.70
2019-01-20T01:59:01.337Z,-3.70
2019-01-20T02:02:04.820Z,-3.70
2019-01-20T02:05:09.435Z,-3.70
2019-01-20T02:08:12.857Z,-3.70
2019-01-20T02:11:16.315Z,-3.80
2019-01-20T02:14:19.747Z,-3.70
2019-01-20T02:17:23.196Z,-3.80
2019-01-20T02:20:26.632Z,-3.90
2019-01-20T02:23:30.093Z,-3.80
2019-01-20T02:26:33.576Z,-3.80
2019-01-20T02:29:37.032Z,-3.80
2019-01-20T02:32:40.547Z,-3.70
2019-01-20T02:35:43.977Z,-3.70
2019-01-20T02:38:47.429Z,-3.70
2019-01-20T02:41:55.086Z,-3.80
2019-01-20T02:44:56.033Z,-3.80
2019-01-20T02:47:59.469Z,-3.80
2019-01-20T02:51:02.917Z,-3.80
2019-01-20T02:54:06.342Z,-3.80
2019-01-20T02:57:09.808Z,-3.80
2019-01-20T03:00:19.075Z,-3.80
2019-01-20T03:03:22.538Z,-3.80
2019-01-20T03:06:25.966Z,-3.70
2019-01-20T03:09:29.408Z,-3.80
2019-01-20T03:12:32.830Z,-3.80
2019-01-20T03:15:36.283Z,-3.70
2019-01-20T03:18:39.887Z,-3.70
2019-01-20T03:21:43.337Z,-3.70
2019-01-20T03:24:46.753Z,-3.70
2019-01-20T03:27:50.216Z,-3.70
2019-01-20T03:30:53.653Z,-3.70
2019-01-20T03:33:57.154Z,-3.80
2019-01-20T03:37:00.618Z,-3.90
2019-01-20T03:40:07.339Z,-4.00
2019-01-20T03:43:10.800Z,-3.90
2019-01-20T03:46:14.222Z,-4.00
2019-01-20T03:49:17.672Z,-4.00
2019-01-20T03:52:21.112Z,-4.00
2019-01-20T03:55:24.544Z,-3.90
2019-01-20T03:58:28.007Z,-3.90
2019-01-20T04:01:31.421Z,-3.90
2019-01-20T04:04:34.883Z,-3.90
2019-01-20T04:07:38.314Z,-4.00
2019-01-20T04:10:41.865Z,-4.00
2019-01-20T04:13:45.281Z,-3.90
2019-01-20T04:16:48.724Z,-3.90
2019-01-20T04:19:52.165Z,-4.00
2019-01-20T04:22:55.638Z,-4.00
2019-01-20T04:25:59.094Z,-4.00
2019-01-20T04:29:02.512Z,-4.10
2019-01-20T04:32:05.975Z,-4.10
2019-01-20T04:35:10.538Z,-4.10
2019-01-20T04:38:14.005Z,-4.10
2019-01-20T04:41:19.849Z,-4.10
2019-01-20T04:44:23.308Z,-4.10
2019-01-20T04:47:26.751Z,-4.10
2019-01-20T04:50:30.195Z,-4.10
2019-01-20T04:53:33.793Z,-4.10
2019-01-20T04:56:37.258Z,-4.20
2019-01-20T04:59:40.675Z,-4.10
2019-01-20T05:02:44.132Z,-4.10
2019-01-20T05:05:47.553Z,-4.10
2019-01-20T05:08:51.056Z,-4.10
2019-01-20T05:11:54.473Z,-4.10
2019-01-20T05:14:57.920Z,-4.10
2019-01-20T05:18:01.355Z,-4.10
2019-01-20T05:21:04.897Z,-4.10
2019-01-20T05:24:08.404Z,-4.10
2019-01-20T05:27:11.856Z,-4.20
2019-01-20T05:30:19.906Z,-4.30
2019-01-20T05:33:23.354Z,-4.40
2019-01-20T05:36:26.772Z,-4.30
2019-01-20T05:39:30.224Z,-4.30
2019-01-20T05:42:33.675Z,-4.30
2019-01-20T05:45:37.098Z,-4.30
2019-01-20T05:48:40.549Z,-4.20
2019-01-20T05:51:43.997Z,-4.30
2019-01-20T05:54:47.423Z,-4.20
2019-01-20T05:57:50.888Z,-4.20
2019-01-20T06:00:54.320Z,-4.20
2019-01-20T06:03:57.770Z,-4.20
2019-01-20T06:07:01.199Z,-4.30
2019-01-20T06:10:07.968Z,-4.20
2019-01-20T06:13:11.392Z,-4.30
2019-01-20T06:16:14.837Z,-4.30
2019-01-20T06:19:18.288Z,-4.40
2019-01-20T06:22:21.708Z,-4.40
2019-01-20T06:25:25.188Z,-4.40
2019-01-20T06:28:28.609Z,-4.50
2019-01-20T06:31:32.053Z,-4.60
2019-01-20T06:34:35.496Z,-4.60
2019-01-20T06:37:38.955Z,-4.60
2019-01-20T06:40:42.377Z,-4.70
2019-01-20T06:43:45.832Z,-4.60
2019-01-20T06:46:49.284Z,-4.60
2019-01-20T06:49:52.704Z,-4.60
2019-01-20T06:52:56.152Z,-4.70
2019-01-20T06:55:59.576Z,-4.70
2019-01-20T06:59:03.028Z,-4.70
2019-01-20T07:02:06.485Z,-4.60
2019-01-20T07:05:10.148Z,-4.70
2019-01-20T07:08:13.600Z,-4.70
2019-01-20T07:11:17.033Z,-4.80
2019-01-20T07:14:20.477Z,-4.80
2019-01-20T07:17:23.916Z,-4.80
2019-01-20T07:20:27.349Z,-4.80
2019-01-20T07:23:30.774Z,-4.90
2019-01-20T07:26:34.203Z,-4.90
2019-01-20T07:29:37.660Z,-4.80
2019-01-20T07:32:41.076Z,-4.70
2019-01-20T07:35:44.527Z,-4.30
2019-01-20T07:38:47.973Z,-3.70
2019-01-20T07:41:51.421Z,-2.90
2019-01-20T07:44:54.851Z,-2.20
2019-01-20T07:47:58.289Z,-1.70
2019-01-20T07:51:01.710Z,-1.20
2019-01-20T07:54:05.209Z,-0.90
2019-01-20T07:57:08.629Z,-0.40
2019-01-20T08:00:20.268Z,0.00
2019-01-20T08:03:23.680Z,0.30
2019-01-20T08:06:27.120Z,0.50
2019-01-20T08:09:30.559Z,0.70
2019-01-20T08:12:34.013Z,0.80
2019-01-20T08:15:37.424Z,0.90
2019-01-20T08:18:40.864Z,1.00
2019-01-20T08:21:44.285Z,1.10
2019-01-20T08:24:47.746Z,1.40
2019-01-20T08:27:51.228Z,1.70
2019-01-20T08:30:54.672Z,1.90
2019-01-20T08:33:58.088Z,2.00
2019-01-20T08:37:01.541Z,1.90
2019-01-20T08:40:08.025Z,1.80
2019-01-20T08:43:11.475Z,1.80
2019-01-20T08:46:20.606Z,1.70
2019-01-20T08:49:24.023Z,1.70
2019-01-20T08:52:27.479Z,1.50
2019-01-20T08:55:30.894Z,1.40
2019-01-20T08:58:34.340Z,1.30
2019-01-20T09:01:37.744Z,1.10
2019-01-20T09:04:41.193Z,1.10
2019-01-20T09:07:44.676Z,1.10
2019-01-20T09:10:48.120Z,1.20
2019-01-20T09:13:51.555Z,1.00
2019-01-20T09:16:54.980Z,1.00
2019-01-20T09:19:58.580Z,1.00
2019-01-20T09:23:01.997Z,1.00
2019-01-20T09:26:05.440Z,0.90
2019-01-20T09:29:08.856Z,0.90
2019-01-20T09:32:12.302Z,0.80
2019-01-20T09:35:15.834Z,0.80
2019-01-20T09:38:19.289Z,0.90
2019-01-20T09:41:22.713Z,0.90
2019-01-20T09:44:26.149Z,1.00
2019-01-20T09:47:29.585Z,1.10
2019-01-20T09:50:33.028Z,1.10
2019-01-20T09:53:36.472Z,1.10
2019-01-20T09:56:39.884Z,0.90
2019-01-20T09:59:43.332Z,0.80
2019-01-20T10:02:46.739Z,0.80
2019-01-20T10:05:50.192Z,0.80
2019-01-20T10:08:53.612Z,0.90
2019-01-20T10:11:57.059Z,1.00
2019-01-20T10:15:00.469Z,1.10
2019-01-20T10:18:04.105Z,1.10
2019-01-20T10:21:07.513Z,1.10
2019-01-20T10:24:10.968Z,1.20
2019-01-20T10:27:14.380Z,1.20
2019-01-20T10:30:21.085Z,1.20
2019-01-20T10:33:24.497Z,1.00
2019-01-20T10:36:27.944Z,1.10
2019-01-20T10:39:31.365Z,1.20
2019-01-20T10:42:34.803Z,1.20
2019-01-20T10:45:38.244Z,1.20
2019-01-20T10:48:41.673Z,1.00
2019-01-20T10:51:45.124Z,0.90
2019-01-20T10:54:48.540Z,0.90
2019-01-20T10:57:51.984Z,1.00
2019-01-20T11:00:55.424Z,0.90
2019-01-20T11:03:58.856Z,1.00
2019-01-20T11:07:02.293Z,1.10
2019-01-20T11:10:11.745Z,1.10
2019-01-20T11:13:15.191Z,1.20
2019-01-20T11:16:18.641Z,1.30
2019-01-20T11:19:22.049Z,1.40
2019-01-20T11:22:25.491Z,1.50
2019-01-20T11:25:31.759Z,1.60
2019-01-20T11:28:35.192Z,1.50
2019-01-20T11:31:38.712Z,1.60
2019-01-20T11:34:42.150Z,1.70
2019-01-20T11:37:45.595Z,1.90
2019-01-20T11:40:49.016Z,2.00
2019-01-20T11:43:52.458Z,2.10
2019-01-20T11:46:55.874Z,2.00
2019-01-20T11:49:59.325Z,2.00
2019-01-20T11:53:02.804Z,2.00
2019-01-20T11:56:06.248Z,2.00
2019-01-20T11:59:09.701Z,1.80
2019-01-20T12:02:13.095Z,1.70
2019-01-20T12:05:17.689Z,1.50
2019-01-20T12:08:21.113Z,1.30
2019-01-20T12:11:24.561Z,1.30
2019-01-20T12:14:27.968Z,1.30
2019-01-20T12:17:31.423Z,1.30
2019-01-20T12:20:34.832Z,1.30
2019-01-20T12:23:38.268Z,1.30
2019-01-20T12:26:41.712Z,1.30
2019-01-20T12:29:51.651Z,1.20
2019-01-20T12:32:50.304Z,1.10
2019-01-20T12:35:53.772Z,1.00
2019-01-20T12:38:57.213Z,1.00
2019-01-20T12:42:00.624Z,0.90
2019-01-20T12:45:05.480Z,0.80
2019-01-20T12:48:08.888Z,0.70
2019-01-20T12:51:12.547Z,0.80
2019-01-20T12:54:16.023Z,0.70
2019-01-20T12:57:19.476Z,0.70
2019-01-20T13:00:22.897Z,0.70
2019-01-20T13:03:26.339Z,0.70
2019-01-20T13:06:29.753Z,0.60
2019-01-20T13:09:33.200Z,0.60
2019-01-20T13:12:36.620Z,0.50
2019-01-20T13:15:41.601Z,0.50
2019-01-20T13:18:45.009Z,0.50
2019-01-20T13:21:49.371Z,0.50
2019-01-20T13:24:52.784Z,0.50
2019-01-20T13:27:56.241Z,0.50
2019-01-20T13:30:59.638Z,0.50
2019-01-20T13:34:03.077Z,0.50
2019-01-20T13:37:06.560Z,0.50
2019-01-20T13:40:13.120Z,0.50
2019-01-20T13:43:16.710Z,0.40
2019-01-20T13:46:21.355Z,0.40
2019-01-20T13:49:24.832Z,0.40
2019-01-20T13:52:29.199Z,0.50
2019-01-20T13:55:32.633Z,0.40
2019-01-20T13:58:36.066Z,0.40
2019-01-20T14:01:39.479Z,0.40
2019-01-20T14:04:42.920Z,0.40
2019-01-20T14:07:46.405Z,0.50
2019-01-20T14:10:49.857Z,0.50
2019-01-20T14:13:53.296Z,0.50
2019-01-20T14:16:56.728Z,0.40
2019-01-20T14:20:00.240Z,0.50
2019-01-20T14:23:04.616Z,0.60
2019-01-20T14:26:08.054Z,0.50
2019-01-20T14:29:11.465Z,0.50
2019-01-20T14:32:14.901Z,0.40
2019-01-20T14:35:18.332Z,0.40
2019-01-20T14:38:21.777Z,0.40
2019-01-20T14:41:25.212Z,0.40
2019-01-20T14:44:28.621Z,0.30
2019-01-20T14:47:32.878Z,0.30
2019-01-20T14:50:36.311Z,0.30
2019-01-20T14:53:39.745Z,0.30
2019-01-20T14:56:43.189Z,0.30
2019-01-20T14:59:46.600Z,0.30
2019-01-20T15:02:50.038Z,0.20
2019-01-20T15:05:53.483Z,0.20
2019-01-20T15:08:56.922Z,0.10
2019-01-20T15:12:01.319Z,0.10
2019-01-20T15:15:09.054Z,0.10
2019-01-20T15:18:12.713Z,0.00
2019-01-20T15:21:17.043Z,-0.10
2019-01-20T15:24:20.496Z,-0.10
2019-01-20T15:27:23.945Z,-0.20
2019-01-20T15:30:32.040Z,-0.30
2019-01-20T15:33:35.465Z,-0.40
2019-01-20T15:36:38.940Z,-0.50
2019-01-20T15:39:44.745Z,-0.60
2019-01-20T15:42:48.410Z,-0.70
2019-01-20T15:45:52.115Z,-0.80
2019-01-20T15:48:55.739Z,-0.80
2019-01-20T15:51:59.224Z,-0.80
2019-01-20T15:55:02.668Z,-0.90
2019-01-20T15:58:06.212Z,-0.90
2019-01-20T16:01:09.707Z,-1.00
2019-01-20T16:04:13.149Z,-1.10
2019-01-20T16:07:16.601Z,-1.10
2019-01-20T16:10:20.039Z,-1.20
2019-01-20T16:13:25.425Z,-1.20
2019-01-20T16:16:28.891Z,-1.30
2019-01-20T16:19:32.453Z,-1.40
2019-01-20T16:22:35.977Z,-1.30
2019-01-20T16:25:39.477Z,-1.40
2019-01-20T16:28:42.897Z,-1.50
2019-01-20T16:31:46.364Z,-1.70
2019-01-20T16:34:49.776Z,-1.60
2019-01-20T16:37:53.666Z,-1.60
2019-01-20T16:40:57.090Z,-1.60
2019-01-20T16:44:00.541Z,-1.70
2019-01-20T16:47:04.032Z,-1.70
2019-01-20T16:50:10.564Z,-1.80
2019-01-20T16:53:14.005Z,-1.80
2019-01-20T16:56:17.430Z,-1.70
2019-01-20T16:59:20.896Z,-1.90
2019-01-20T17:02:24.327Z,-1.90
2019-01-20T17:05:30.620Z,-2.00
2019-01-20T17:08:34.044Z,-2.00
2019-01-20T17:11:37.481Z,-1.90
2019-01-20T17:14:40.921Z,-2.00
2019-01-20T17:17:44.369Z,-2.00
2019-01-20T17:20:47.895Z,-2.00
2019-01-20T17:23:51.309Z,-2.00
2019-01-20T17:26:54.761Z,-2.10
2019-01-20T17:29:58.179Z,-2.10
2019-01-20T17:33:01.960Z,-2.10
2019-01-20T17:36:05.384Z,-2.10
2019-01-20T17:39:12.086Z,-2.10
2019-01-20T17:42:14.467Z,-2.10
2019-01-20T17:45:23.373Z,-2.10
2019-01-20T17:48:26.844Z,-2.20
2019-01-20T17:51:30.287Z,-2.10
2019-01-20T17:54:33.705Z,-2.10
2019-01-20T17:57:37.145Z,-2.20
2019-01-20T18:00:47.866Z,-2.20
2019-01-20T18:03:51.313Z,-2.20
2019-01-20T18:06:54.755Z,-2.20
2019-01-20T18:09:58.192Z,-2.30
2019-01-20T18:13:01.641Z,-2.30
2019-01-20T18:16:05.095Z,-2.30
2019-01-20T18:19:08.595Z,-2.30
2019-01-20T18:22:13.933Z,-2.40
2019-01-20T18:25:18.629Z,-2.40
2019-01-20T18:28:22.050Z,-2.40
2019-01-20T18:31:25.504Z,-2.40
2019-01-20T18:34:28.928Z,-2.40
2019-01-20T18:37:32.377Z,-2.40
2019-01-20T18:40:35.834Z,-2.40
2019-01-20T18:43:39.266Z,-2.50
2019-01-20T18:46:43.710Z,-2.50
2019-01-20T18:49:47.200Z,-2.60
2019-01-20T18:52:52.192Z,-2.60
2019-01-20T18:55:55.622Z,-2.70
2019-01-20T18:58:59.068Z,-2.70
2019-01-20T19:02:02.523Z,-2.80
2019-01-20T19:05:09.044Z,-2.80
2019-01-20T19:08:12.501Z,-2.80
2019-01-20T19:11:15.924Z,-2.80
2019-01-20T19:14:19.393Z,-2.70
2019-01-20T19:17:22.832Z,-2.80
2019-01-20T19:20:27.034Z,-2.70
2019-01-20T19:23:30.561Z,-2.70
2019-01-20T19:26:33.996Z,-2.80
2019-01-20T19:29:37.436Z,-2.80
2019-01-20T19:32:40.890Z,-2.80
2019-01-20T19:35:44.314Z,-2.90
2019-01-20T19:38:47.840Z,-3.00
2019-01-20T19:41:51.297Z,-2.90
2019-01-20T19:44:54.752Z,-2.90
2019-01-20T19:47:58.247Z,-3.00
2019-01-20T19:51:01.689Z,-3.00
2019-01-20T19:54:05.191Z,-3.00
2019-01-20T19:57:08.632Z,-3.00
2019-01-20T20:00:17.975Z,-3.10
2019-01-20T20:03:21.486Z,-3.10
2019-01-20T20:06:24.928Z,-3.20
2019-01-20T20:09:28.377Z,-3.20
2019-01-20T20:12:31.804Z,-3.10
2019-01-20T20:18:38.349Z,-3.10
2019-01-20T20:21:41.780Z,-3.10
2019-01-20T20:24:45.229Z,-3.20
2019-01-20T20:27:48.673Z,-3.20
2019-01-20T20:30:52.131Z,-3.30
2019-01-20T20:33:55.592Z,-3.30
2019-01-20T20:37:00.408Z,-3.40
2019-01-20T20:40:06.861Z,-3.30
2019-01-20T20:43:10.328Z,-3.30
2019-01-20T20:46:13.784Z,-3.30
2019-01-20T20:49:17.228Z,-3.40
2019-01-20T20:52:20.673Z,-3.40
2019-01-20T20:55:24.118Z,-3.40
2019-01-20T20:58:27.552Z,-3.30
2019-01-20T21:01:30.988Z,-3.40
2019-01-20T21:04:34.480Z,-3.40
2019-01-20T21:07:37.980Z,-3.40
2019-01-20T21:10:41.448Z,-3.30
2019-01-20T21:13:44.865Z,-3.20
2019-01-20T21:16:48.411Z,-3.20
2019-01-20T21:19:51.832Z,-3.20
2019-01-20T21:22:55.281Z,-3.40
2019-01-20T21:25:58.718Z,-3.50
2019-01-20T21:29:02.442Z,-3.50
2019-01-20T21:32:05.885Z,-3.50
2019-01-20T21:35:09.652Z,-3.50
2019-01-20T21:38:13.096Z,-3.60
2019-01-20T21:41:16.527Z,-3.60
2019-01-20T21:44:20.173Z,-3.60
2019-01-20T21:47:23.794Z,-3.60
2019-01-20T21:50:29.722Z,-3.60
2019-01-20T21:53:33.395Z,-3.60
2019-01-20T21:56:37.094Z,-3.60
2019-01-20T21:59:40.756Z,-3.60
2019-01-20T22:02:44.445Z,-3.60
2019-01-20T22:05:48.081Z,-3.60
2019-01-20T22:08:51.662Z,-3.60
2019-01-20T22:11:55.172Z,-3.70
2019-01-20T22:14:58.598Z,-3.80
2019-01-20T22:18:03.162Z,-4.00
2019-01-20T22:21:06.773Z,-4.00
2019-01-20T22:24:10.200Z,-4.10
2019-01-20T22:27:13.656Z,-4.10
2019-01-20T22:30:24.628Z,-4.10
2019-01-20T22:33:28.081Z,-4.20
2019-01-20T22:36:31.504Z,-4.20
2019-01-20T22:39:34.953Z,-4.20
2019-01-20T22:42:38.537Z,-4.20
2019-01-20T22:45:41.982Z,-4.20
2019-01-20T22:48:45.408Z,-4.20
2019-01-20T22:51:48.861Z,-4.20
2019-01-20T22:54:52.308Z,-4.20
2019-01-20T22:57:55.820Z,-4.30
2019-01-20T23:00:59.673Z,-4.20
2019-01-20T23:04:03.119Z,-4.30
2019-01-20T23:07:06.562Z,-4.30
2019-01-20T23:10:10.064Z,-4.30
2019-01-20T23:13:13.551Z,-4.40
2019-01-20T23:16:17.032Z,-4.30
2019-01-20T23:19:20.493Z,-4.30
2019-01-20T23:22:23.924Z,-4.30
2019-01-20T23:25:27.378Z,-4.30
2019-01-20T23:28:30.831Z,-4.30
2019-01-20T23:31:34.286Z,-4.30
2019-01-20T23:34:37.703Z,-4.30
2019-01-20T23:37:41.151Z,-4.30
2019-01-20T23:40:44.608Z,-4.30
2019-01-20T23:43:48.050Z,-4.40
2019-01-20T23:46:51.548Z,-4.50
2019-01-20T23:49:54.974Z,-4.50
2019-01-20T23:52:58.408Z,-4.60
2019-01-20T23:56:01.839Z,-4.60
2019-01-20T23:59:05.279Z,-4.60
